createdAt,value
2022-12-15T00:02:52.329Z,60.23
2022-12-15T00:08:12.535Z,56.03
2022-12-15T00:13:33.531Z,63.97
2022-12-15T00:18:54.913Z,59.40
2022-12-15T00:24:15.243Z,59.90
2022-12-15T00:29:35.441Z,60.70
2022-12-15T00:34:55.804Z,59.60
2022-12-15T00:40:04.326Z,55.37
2022-12-15T00:45:06.517Z,52.67
2022-12-15T00:50:26.951Z,56.83
2022-12-15T00:55:47.270Z,54.50
2022-12-15T01:01:07.531Z,60.10
2022-12-15T01:06:33.740Z,49.40
2022-12-15T01:11:54.070Z,52.20
2022-12-15T01:17:14.216Z,49.40
2022-12-15T01:22:16.167Z,52.83
2022-12-15T01:27:17.966Z,55.73
2022-12-15T01:32:19.646Z,52.17
2022-12-15T01:37:21.324Z,54.57
2022-12-15T01:42:23.113Z,61.93
2022-12-15T01:47:27.306Z,57.70
2022-12-15T01:52:30.756Z,54.73
2022-12-15T01:57:36.436Z,46.57
2022-12-15T02:02:40.513Z,51.83
2022-12-15T02:07:43.344Z,48.93
2022-12-15T02:13:19.693Z,48.27
2022-12-15T02:18:46.176Z,50.17
2022-12-15T02:24:03.741Z,57.20
2022-12-15T02:29:42.241Z,47.53
2022-12-15T02:34:50.360Z,48.50
2022-12-15T02:39:52.116Z,51.13
2022-12-15T02:44:58.786Z,41.83
2022-12-15T02:50:42.801Z,47.63
2022-12-15T02:56:13.095Z,52.47
2022-12-15T03:01:43.381Z,50.60
2022-12-15T03:06:45.113Z,53.50
2022-12-15T03:11:46.888Z,44.43
2022-12-15T03:16:48.616Z,50.43
2022-12-15T03:21:50.333Z,48.33
2022-12-15T03:26:51.990Z,47.37
2022-12-15T03:31:53.767Z,50.93
2022-12-15T03:36:55.473Z,51.63
2022-12-15T03:41:57.145Z,50.80
2022-12-15T03:47:03.287Z,52.03
2022-12-15T03:52:05.547Z,51.00
2022-12-15T03:57:07.206Z,44.97
2022-12-15T04:02:12.263Z,44.73
2022-12-15T04:07:14.173Z,45.90
2022-12-15T04:12:15.837Z,51.60
2022-12-15T04:17:17.593Z,40.87
2022-12-15T04:22:19.273Z,50.20
2022-12-15T04:27:39.402Z,41.10
2022-12-15T04:32:59.698Z,49.40
2022-12-15T04:38:19.962Z,41.77
2022-12-15T04:43:40.385Z,44.58
2022-12-15T04:49:00.718Z,45.57
2022-12-15T04:54:21.167Z,48.63
2022-12-15T04:59:41.434Z,46.00
2022-12-15T05:05:01.734Z,44.87
2022-12-15T05:10:22.909Z,40.40
2022-12-15T05:15:43.203Z,47.83
2022-12-15T05:21:03.548Z,43.03
2022-12-15T05:26:23.790Z,43.83
2022-12-15T05:31:43.895Z,43.27
2022-12-15T05:36:45.685Z,47.77
2022-12-15T05:41:47.663Z,47.90
2022-12-15T05:46:49.400Z,39.03
2022-12-15T05:51:51.120Z,38.10
2022-12-15T05:56:52.891Z,40.33
2022-12-15T06:01:54.601Z,41.00
2022-12-15T06:06:56.305Z,42.67
2022-12-15T06:11:57.984Z,39.87
2022-12-15T06:17:00.194Z,39.60
2022-12-15T06:22:01.934Z,41.70
2022-12-15T06:27:03.680Z,43.40
2022-12-15T06:32:05.454Z,47.33
2022-12-15T06:37:07.107Z,35.50
2022-12-15T06:42:08.764Z,45.87
2022-12-15T06:47:10.529Z,47.07
2022-12-15T06:52:12.458Z,52.37
2022-12-15T06:57:14.131Z,55.37
2022-12-15T07:02:20.068Z,51.47
2022-12-15T07:07:24.132Z,49.73
2022-12-15T07:12:25.900Z,44.53
2022-12-15T07:17:27.559Z,49.30
2022-12-15T07:22:29.223Z,43.80
2022-12-15T07:27:30.900Z,41.83
2022-12-15T07:32:32.686Z,43.20
2022-12-15T07:37:35.033Z,44.27
2022-12-15T07:42:37.352Z,43.27
2022-12-15T07:47:39.029Z,43.23
2022-12-15T07:52:40.749Z,55.92
2022-12-15T07:57:42.451Z,44.10
2022-12-15T08:02:44.340Z,40.00
2022-12-15T08:07:46.803Z,39.63
2022-12-15T08:12:48.511Z,45.23
2022-12-15T08:17:50.161Z,50.53
2022-12-15T08:22:52.111Z,40.73
2022-12-15T08:27:53.880Z,41.33
2022-12-15T08:32:55.643Z,55.17
2022-12-15T08:38:02.275Z,47.67
2022-12-15T08:43:06.841Z,39.50
2022-12-15T08:48:08.512Z,37.40
2022-12-15T08:53:30.828Z,49.13
2022-12-15T08:58:33.628Z,55.00
2022-12-15T09:03:36.498Z,46.17
2022-12-15T09:08:38.564Z,44.70
2022-12-15T09:13:40.298Z,51.57
2022-12-15T09:18:43.903Z,48.03
2022-12-15T09:23:52.819Z,45.40
2022-12-15T09:28:55.337Z,46.30
2022-12-15T09:33:58.899Z,50.10
2022-12-15T09:39:02.310Z,51.23
2022-12-15T09:44:10.391Z,52.37
2022-12-15T09:49:34.494Z,53.57
2022-12-15T09:54:36.249Z,41.87
2022-12-15T09:59:57.746Z,35.67
2022-12-15T10:05:12.214Z,30.40
2022-12-15T10:10:32.476Z,38.47
2022-12-15T10:16:14.736Z,30.83
2022-12-15T10:21:17.024Z,36.60
2022-12-15T10:26:23.384Z,29.10
2022-12-15T10:31:41.761Z,33.65
2022-12-15T10:36:50.579Z,24.85
2022-12-15T10:42:27.180Z,17.67
2022-12-15T10:47:31.716Z,20.15
2022-12-15T10:52:37.692Z,17.90
2022-12-15T10:57:58.366Z,17.42
2022-12-15T11:03:00.249Z,14.95
2022-12-15T11:08:17.233Z,13.75
2022-12-15T11:13:23.594Z,16.77
2022-12-15T11:19:02.416Z,17.42
2022-12-15T11:24:30.561Z,15.60
2022-12-15T11:29:56.828Z,15.15
2022-12-15T11:34:59.039Z,16.10
2022-12-15T11:40:03.423Z,14.95
2022-12-15T11:45:20.944Z,12.60
2022-12-15T11:50:44.520Z,14.55
2022-12-15T11:56:04.768Z,14.60
2022-12-15T12:01:25.320Z,17.48
2022-12-15T12:06:40.127Z,21.77
2022-12-15T12:11:56.682Z,19.95
2022-12-15T12:17:30.852Z,17.00
2022-12-15T12:22:40.426Z,21.27
2022-12-15T12:27:53.932Z,21.90
2022-12-15T12:33:25.161Z,19.30
2022-12-15T12:38:34.033Z,18.70
2022-12-15T12:43:50.523Z,15.88
2022-12-15T12:49:26.218Z,15.45
2022-12-15T12:54:34.485Z,17.25
2022-12-15T12:59:39.420Z,17.48
2022-12-15T13:04:44.481Z,17.60
2022-12-15T13:10:12.610Z,17.80
2022-12-15T13:15:23.149Z,14.68
2022-12-15T13:20:37.215Z,12.65
2022-12-15T13:25:41.767Z,15.10
2022-12-15T13:31:21.002Z,15.48
2022-12-15T13:36:37.963Z,16.10
2022-12-15T13:42:23.493Z,15.38
2022-12-15T13:47:16.374Z,13.35
2022-12-15T13:52:38.106Z,16.20
2022-12-15T13:57:55.554Z,23.48
2022-12-15T14:03:06.756Z,24.55
2022-12-15T14:08:15.815Z,18.80
2022-12-15T14:13:26.270Z,22.17
2022-12-15T14:18:33.690Z,19.27
2022-12-15T14:29:06.299Z,23.77
2022-12-15T14:34:24.895Z,20.90
2022-12-15T14:39:33.795Z,25.50
2022-12-15T14:44:39.665Z,21.97
2022-12-15T14:49:45.212Z,19.77
2022-12-15T14:54:53.672Z,22.80
2022-12-15T14:59:59.581Z,20.00
2022-12-15T15:03:14.309Z,21.35
2022-12-15T15:05:04.675Z,47.10
2022-12-15T15:10:22.962Z,22.13
2022-12-15T15:15:26.694Z,24.53
2022-12-15T15:20:31.812Z,25.73
2022-12-15T15:25:39.339Z,27.47
2022-12-15T15:30:48.351Z,26.27
2022-12-15T15:35:53.361Z,21.80
2022-12-15T15:40:58.105Z,28.03
2022-12-15T15:46:10.526Z,24.80
2022-12-15T15:51:12.564Z,28.17
2022-12-15T15:56:16.527Z,28.73
2022-12-15T16:01:18.262Z,25.33
2022-12-15T16:06:21.910Z,26.03
2022-12-15T16:11:27.843Z,28.00
2022-12-15T16:16:32.622Z,34.20
2022-12-15T16:21:35.623Z,29.33
2022-12-15T16:26:38.959Z,30.27
2022-12-15T16:31:45.442Z,32.47
2022-12-15T16:36:47.872Z,25.77
2022-12-15T16:41:51.711Z,36.57
2022-12-15T16:46:53.413Z,32.40
2022-12-15T16:51:55.435Z,34.40
2022-12-15T16:56:59.924Z,34.57
2022-12-15T17:02:02.381Z,38.23
2022-12-15T17:07:04.181Z,33.53
2022-12-15T17:12:06.056Z,42.10
2022-12-15T17:17:14.983Z,54.93
2022-12-15T17:22:16.699Z,56.50
2022-12-15T17:27:28.150Z,50.60
2022-12-15T17:32:29.834Z,53.67
2022-12-15T17:37:35.230Z,55.20
2022-12-15T17:42:37.315Z,49.27
2022-12-15T17:47:38.976Z,55.23
2022-12-15T17:52:42.856Z,54.47
2022-12-15T17:57:45.123Z,46.57
2022-12-15T18:02:47.470Z,47.23
2022-12-15T18:07:53.774Z,51.30
2022-12-15T18:12:56.336Z,58.70
2022-12-15T18:18:00.328Z,54.43
2022-12-15T18:23:02.040Z,58.00
2022-12-15T18:28:17.389Z,64.68
2022-12-15T18:33:20.427Z,57.80
2022-12-15T18:38:24.791Z,54.43
2022-12-15T18:43:30.207Z,63.78
2022-12-15T18:48:34.965Z,56.17
2022-12-15T18:53:37.080Z,57.43
2022-12-15T18:58:40.030Z,54.50
2022-12-15T19:03:41.706Z,52.28
2022-12-15T19:08:43.398Z,48.63
2022-12-15T19:13:45.945Z,51.53
2022-12-15T19:19:06.570Z,47.50
2022-12-15T19:24:11.877Z,46.27
2022-12-15T19:29:21.997Z,50.33
2022-12-15T19:34:23.651Z,56.00
2022-12-15T19:39:25.373Z,51.63
2022-12-15T19:44:27.547Z,54.07
2022-12-15T19:49:29.195Z,54.97
2022-12-15T19:54:31.047Z,49.40
2022-12-15T19:59:32.707Z,50.53
2022-12-15T20:04:34.382Z,51.93
2022-12-15T20:09:36.032Z,50.83
2022-12-15T20:14:37.849Z,54.80
2022-12-15T20:19:39.504Z,47.80
2022-12-15T20:24:42.328Z,52.27
2022-12-15T20:29:44.907Z,58.00
2022-12-15T20:34:47.420Z,53.00
2022-12-15T20:39:55.556Z,57.80
2022-12-15T20:44:58.988Z,55.83
2022-12-15T20:50:00.712Z,57.50
2022-12-15T20:55:03.131Z,63.00
2022-12-15T21:00:05.588Z,59.53
2022-12-15T21:05:08.430Z,55.57
2022-12-15T21:10:11.395Z,52.87
2022-12-15T21:15:22.224Z,57.57
2022-12-15T21:20:23.916Z,63.83
2022-12-15T21:25:26.849Z,58.33
2022-12-15T21:30:28.763Z,58.47
2022-12-15T21:35:32.059Z,66.65
2022-12-15T21:40:33.936Z,63.30
2022-12-15T21:45:35.593Z,59.20
2022-12-15T21:50:38.464Z,59.83
2022-12-15T21:55:41.158Z,56.60
2022-12-15T22:00:45.698Z,52.63
2022-12-15T22:05:47.605Z,51.93
2022-12-15T22:10:51.948Z,65.57
2022-12-15T22:15:54.699Z,51.83
2022-12-15T22:20:56.564Z,55.50
2022-12-15T22:25:58.324Z,56.27
2022-12-15T22:31:02.441Z,50.43
2022-12-15T22:36:04.368Z,41.43
2022-12-15T22:41:09.971Z,47.90
2022-12-15T22:46:14.180Z,51.93
2022-12-15T22:51:17.466Z,47.72
2022-12-15T22:56:24.260Z,53.43
2022-12-15T23:01:26.971Z,46.67
2022-12-15T23:06:28.717Z,57.70
2022-12-15T23:11:39.508Z,49.85
2022-12-15T23:16:42.061Z,52.63
2022-12-15T23:21:43.707Z,63.53
2022-12-15T23:26:45.391Z,63.03
2022-12-15T23:31:47.459Z,71.13
2022-12-15T23:36:49.193Z,83.67
2022-12-15T23:41:50.848Z,91.70
2022-12-15T23:46:52.571Z,82.13
2022-12-15T23:51:54.364Z,80.27
2022-12-15T23:56:56.791Z,78.27
